Time;durP1;ratioP1;P1;durP2;ratioP2;P2;SDS_P1;SDS_P2;PMS_P1;PMS_P2;Temp;Humidity;BMP_temperature;BMP_pressure;BME280_temperature;BME280_humidity;BME280_pressure;Samples;Min_cycle;Max_cycle;Signal;HPM_P1;HPM_P2
2022/10/10 00:01:20;;;;;;;9.13;5.07;;;14.70;54.10;;;;;;5117459;27;21013;-86
2022/10/10 00:03:49;;;;;;;8.03;4.70;;;14.70;54.10;;;;;;5103658;27;20458;-88
2022/10/10 00:06:16;;;;;;;7.27;5.03;;;14.60;53.90;;;;;;5097879;27;20540;-86
2022/10/10 00:08:44;;;;;;;6.00;4.90;;;14.60;53.90;;;;;;5107122;27;20480;-86
2022/10/10 00:11:12;;;;;;;8.20;5.23;;;14.50;53.90;;;;;;5091238;27;20479;-86
2022/10/10 00:13:40;;;;;;;6.60;4.73;;;14.30;54.20;;;;;;5112798;27;20537;-88
2022/10/10 00:16:07;;;;;;;9.40;5.07;;;14.40;54.00;;;;;;5115758;27;20450;-86
2022/10/10 00:18:34;;;;;;;6.87;4.80;;;14.30;53.70;;;;;;5104543;27;20534;-86
2022/10/10 00:21:03;;;;;;;9.23;4.90;;;14.20;53.80;;;;;;5119476;27;20463;-86
2022/10/10 00:23:30;;;;;;;8.23;4.90;;;14.00;53.80;;;;;;5125291;27;20470;-86
2022/10/10 00:25:58;;;;;;;5.60;4.60;;;14.00;54.30;;;;;;5114303;27;20443;-87
2022/10/10 00:28:25;;;;;;;6.80;4.70;;;14.00;54.10;;;;;;5116854;27;20470;-86
2022/10/10 00:30:52;;;;;;;5.90;5.10;;;14.00;53.80;;;;;;5101172;27;20458;-86
2022/10/10 00:33:19;;;;;;;11.17;5.40;;;14.00;53.50;;;;;;5089800;27;21369;-86
2022/10/10 00:35:47;;;;;;;6.90;4.53;;;14.00;53.90;;;;;;5101600;28;20838;-86
2022/10/10 00:38:16;;;;;;;7.57;5.40;;;14.00;54.10;;;;;;5101071;28;20558;-86
2022/10/10 00:40:49;;;;;;;6.07;5.20;;;14.00;54.40;;;;;;5090948;27;20440;-86
2022/10/10 00:43:17;;;;;;;5.40;4.87;;;14.00;54.30;;;;;;5117523;27;21003;-86
2022/10/10 00:45:46;;;;;;;9.37;4.70;;;14.00;54.10;;;;;;5097944;27;20444;-88
2022/10/10 00:48:16;;;;;;;11.20;5.73;;;14.00;53.90;;;;;;5119159;27;20571;-87
2022/10/10 00:50:48;;;;;;;11.17;4.87;;;14.10;54.10;;;;;;5090377;27;20442;-87
2022/10/10 00:53:20;;;;;;;6.67;4.50;;;14.00;54.00;;;;;;5099424;28;20581;-86
2022/10/10 00:55:47;;;;;;;11.77;5.10;;;14.00;54.10;;;;;;5102052;28;20972;-86
2022/10/10 00:58:15;;;;;;;4.77;4.27;;;13.90;53.30;;;;;;5090575;28;20465;-87
2022/10/10 01:00:43;;;;;;;4.53;3.53;;;13.70;53.90;;;;;;5112794;28;20574;-86
2022/10/10 01:03:10;;;;;;;8.07;4.70;;;13.70;54.40;;;;;;5114472;27;20470;-85
2022/10/10 01:05:37;;;;;;;7.33;4.63;;;13.80;54.30;;;;;;5089668;28;20447;-86
2022/10/10 01:08:06;;;;;;;8.17;4.67;;;13.80;53.60;;;;;;5102505;28;20546;-87
2022/10/10 01:10:44;;;;;;;6.33;3.80;;;13.80;53.90;;;;;;5108663;28;20481;-88
2022/10/10 01:13:19;;;;;;;5.47;4.07;;;13.70;54.20;;;;;;5100565;28;20447;-85
2022/10/10 01:15:54;;;;;;;5.00;4.50;;;13.70;54.40;;;;;;5115192;28;20993;-86
2022/10/10 01:18:29;;;;;;;5.33;3.43;;;13.80;54.20;;;;;;5096888;28;20465;-86
2022/10/10 01:21:10;;;;;;;5.70;4.30;;;13.80;53.80;;;;;;5099265;28;20484;-86
2022/10/10 01:24:01;;;;;;;7.03;4.43;;;13.80;53.50;;;;;;5117406;28;20461;-86
2022/10/10 01:26:55;;;;;;;11.27;4.23;;;13.80;53.40;;;;;;5112563;28;20451;-85
2022/10/10 01:29:30;;;;;;;8.83;4.80;;;13.80;53.50;;;;;;5111802;28;20457;-87
2022/10/10 01:32:03;;;;;;;6.40;3.90;;;13.60;53.80;;;;;;5117454;28;20495;-85
2022/10/10 01:34:34;;;;;;;6.47;4.10;;;13.50;53.80;;;;;;5097913;28;20446;-86
2022/10/10 01:37:09;;;;;;;8.50;4.00;;;13.50;53.60;;;;;;5097896;28;20573;-86
2022/10/10 01:39:42;;;;;;;11.20;4.67;;;13.40;53.40;;;;;;5118316;28;20473;-86
2022/10/10 01:42:14;;;;;;;6.10;4.23;;;13.30;53.70;;;;;;5116490;28;20522;-87
2022/10/10 01:44:45;;;;;;;6.40;4.57;;;13.20;54.10;;;;;;5112775;28;20546;-86
2022/10/10 01:47:13;;;;;;;6.23;4.00;;;13.20;54.90;;;;;;5114177;28;20463;-87
2022/10/10 01:49:44;;;;;;;5.30;4.80;;;13.10;55.00;;;;;;5097868;28;20432;-87
2022/10/10 01:52:24;;;;;;;7.20;4.50;;;13.20;54.70;;;;;;5113871;28;20520;-87
2022/10/10 01:55:03;;;;;;;6.40;5.20;;;13.20;53.80;;;;;;5084982;28;20502;-88
2022/10/10 01:57:36;;;;;;;7.30;4.53;;;13.20;54.50;;;;;;5102891;28;20516;-86
2022/10/10 02:00:09;;;;;;;5.50;4.50;;;13.20;54.60;;;;;;5102315;28;20475;-88
2022/10/10 02:02:49;;;;;;;4.80;4.23;;;13.10;53.80;;;;;;5107875;27;20455;-86
2022/10/10 02:05:22;;;;;;;7.53;4.83;;;13.10;53.40;;;;;;5118230;27;20470;-86
2022/10/10 02:07:53;;;;;;;4.70;4.10;;;13.00;53.90;;;;;;5121561;27;20470;-87
2022/10/10 02:10:26;;;;;;;5.63;4.10;;;13.00;54.10;;;;;;5101210;27;20495;-87
2022/10/10 02:12:56;;;;;;;8.57;4.23;;;13.10;54.60;;;;;;5119477;27;20443;-86
2022/10/10 02:15:27;;;;;;;6.17;5.10;;;13.10;54.40;;;;;;5101593;27;20473;-87
2022/10/10 02:17:57;;;;;;;6.67;3.93;;;13.20;54.60;;;;;;5118525;27;20482;-86
2022/10/10 02:20:27;;;;;;;6.17;4.23;;;13.10;54.70;;;;;;5090953;27;20497;-86
2022/10/10 02:22:55;;;;;;;6.23;4.07;;;13.10;54.50;;;;;;5124940;27;20454;-86
2022/10/10 02:25:27;;;;;;;7.63;4.50;;;13.20;54.20;;;;;;5116202;27;20450;-86
2022/10/10 02:28:05;;;;;;;6.77;4.43;;;13.20;53.90;;;;;;5121398;27;20928;-86
2022/10/10 02:30:37;;;;;;;6.50;4.17;;;13.20;53.70;;;;;;5102615;27;20458;-86
2022/10/10 02:33:07;;;;;;;4.93;4.40;;;13.20;53.80;;;;;;5116937;27;20537;-86
2022/10/10 02:35:38;;;;;;;5.10;4.17;;;13.20;53.80;;;;;;5127416;27;21252;-87
2022/10/10 02:38:07;;;;;;;6.10;4.80;;;13.20;53.90;;;;;;5108051;27;20515;-86
2022/10/10 02:40:36;;;;;;;10.10;3.93;;;13.20;54.10;;;;;;5101898;27;20510;-86
2022/10/10 02:43:07;;;;;;;5.57;4.10;;;13.20;54.00;;;;;;5118476;27;20833;-86
2022/10/10 02:45:36;;;;;;;4.93;4.43;;;13.10;55.10;;;;;;5115936;27;20511;-86
2022/10/10 02:48:04;;;;;;;9.87;4.00;;;13.00;55.90;;;;;;5109855;27;20464;-86
2022/10/10 02:50:32;;;;;;;5.53;4.93;;;13.10;56.00;;;;;;5087401;27;20451;-87
2022/10/10 02:52:59;;;;;;;7.00;5.30;;;13.20;55.80;;;;;;5087077;27;20458;-87
2022/10/10 02:55:26;;;;;;;7.40;4.97;;;13.20;55.90;;;;;;5101054;27;20454;-85
2022/10/10 02:57:54;;;;;;;6.30;5.20;;;13.10;56.50;;;;;;5093672;27;20470;-86
2022/10/10 03:00:21;;;;;;;4.83;4.13;;;13.10;56.60;;;;;;5103559;27;20445;-86
2022/10/10 03:02:49;;;;;;;4.40;4.00;;;13.10;56.50;;;;;;5090238;27;20463;-86
2022/10/10 03:05:17;;;;;;;6.70;4.90;;;13.30;56.20;;;;;;5090015;27;20449;-86
2022/10/10 03:07:44;;;;;;;5.07;4.57;;;13.30;56.10;;;;;;5087982;27;20543;-86
2022/10/10 03:10:11;;;;;;;8.90;5.47;;;13.40;56.20;;;;;;5121459;27;20996;-87
2022/10/10 03:12:38;;;;;;;9.07;4.67;;;13.40;56.10;;;;;;5115087;27;20519;-86
2022/10/10 03:15:06;;;;;;;5.60;4.10;;;13.50;56.10;;;;;;5101253;28;21056;-86
2022/10/10 03:17:33;;;;;;;9.73;5.43;;;13.50;56.30;;;;;;5090777;27;20561;-86
2022/10/10 03:20:02;;;;;;;6.43;4.17;;;13.50;56.10;;;;;;5119073;27;20458;-86
2022/10/10 03:22:29;;;;;;;5.80;4.50;;;13.50;55.60;;;;;;5106827;27;20450;-86
2022/10/10 03:24:56;;;;;;;7.03;4.63;;;13.40;55.40;;;;;;5102505;27;20442;-87
2022/10/10 03:27:23;;;;;;;6.03;4.50;;;13.30;55.10;;;;;;5080819;27;20498;-86
2022/10/10 03:29:50;;;;;;;4.50;4.03;;;13.30;55.00;;;;;;5121943;27;20926;-87
2022/10/10 03:32:18;;;;;;;4.70;4.20;;;13.30;55.00;;;;;;5102877;27;20437;-86
2022/10/10 03:34:45;;;;;;;5.13;4.63;;;13.20;54.60;;;;;;5114790;27;20643;-87
2022/10/10 03:37:13;;;;;;;8.10;5.50;;;13.20;54.70;;;;;;5118109;27;20476;-88
2022/10/10 03:39:40;;;;;;;6.67;4.40;;;13.20;54.70;;;;;;5098431;27;20454;-87
2022/10/10 03:42:07;;;;;;;9.37;6.37;;;13.10;54.70;;;;;;5122120;27;20982;-87
2022/10/10 03:44:34;;;;;;;8.70;4.77;;;13.00;54.50;;;;;;5083098;27;20550;-87
2022/10/10 03:47:01;;;;;;;8.00;6.47;;;13.00;55.00;;;;;;5089332;27;20462;-88
2022/10/10 03:49:29;;;;;;;6.00;5.20;;;13.00;54.70;;;;;;5096207;27;20478;-86
2022/10/10 03:51:56;;;;;;;9.87;4.63;;;12.90;54.70;;;;;;5099556;28;20447;-89
2022/10/10 03:54:24;;;;;;;4.90;4.40;;;12.90;54.50;;;;;;5122732;27;20508;-88
2022/10/10 03:56:51;;;;;;;5.50;4.93;;;12.90;55.00;;;;;;5081476;28;20446;-86
2022/10/10 03:59:18;;;;;;;7.53;5.20;;;12.80;55.10;;;;;;5115196;27;20470;-87
2022/10/10 04:01:45;;;;;;;6.23;4.60;;;12.70;55.70;;;;;;5090110;27;20477;-86
2022/10/10 04:04:12;;;;;;;9.63;4.70;;;12.70;56.50;;;;;;5099020;27;21098;-88
2022/10/10 04:06:39;;;;;;;5.80;4.33;;;12.80;55.50;;;;;;5107386;27;20550;-87
2022/10/10 04:09:07;;;;;;;11.83;5.37;;;12.80;55.70;;;;;;5091363;27;20490;-88
2022/10/10 04:11:37;;;;;;;20.10;5.53;;;12.80;55.40;;;;;;5116876;27;20479;-86
2022/10/10 04:14:04;;;;;;;9.90;5.87;;;12.70;57.10;;;;;;5116457;27;20450;-87
2022/10/10 04:16:31;;;;;;;15.10;6.60;;;12.50;57.30;;;;;;5087621;27;20684;-87
2022/10/10 04:18:58;;;;;;;16.60;8.73;;;12.60;56.60;;;;;;5105450;27;20469;-86
2022/10/10 04:21:25;;;;;;;15.50;8.60;;;12.50;55.80;;;;;;5089113;27;20546;-88
2022/10/10 04:23:52;;;;;;;12.03;7.73;;;12.50;56.60;;;;;;5090889;27;20495;-86
2022/10/10 04:26:20;;;;;;;13.40;10.23;;;12.50;56.60;;;;;;5112279;27;20446;-90
2022/10/10 04:28:48;;;;;;;12.67;8.30;;;12.50;57.10;;;;;;5125153;27;20519;-89
2022/10/10 04:31:15;;;;;;;11.17;7.60;;;12.50;57.10;;;;;;5130455;27;20477;-87
2022/10/10 04:33:42;;;;;;;11.17;7.30;;;12.40;57.90;;;;;;5096400;27;20461;-87
2022/10/10 04:36:09;;;;;;;9.37;6.77;;;12.50;57.40;;;;;;5099135;27;20530;-86
2022/10/10 04:38:37;;;;;;;11.30;8.30;;;12.60;57.00;;;;;;5115561;27;20530;-87
2022/10/10 04:41:04;;;;;;;13.20;8.70;;;12.70;56.80;;;;;;5099085;27;20964;-86
2022/10/10 04:43:31;;;;;;;16.43;7.83;;;12.80;56.90;;;;;;5122828;27;20527;-87
2022/10/10 04:45:59;;;;;;;18.40;8.47;;;12.70;56.90;;;;;;5098411;28;20890;-86
2022/10/10 04:48:27;;;;;;;20.03;7.57;;;12.80;56.80;;;;;;5116943;27;20458;-91
2022/10/10 04:50:56;;;;;;;14.13;8.77;;;12.90;56.60;;;;;;5114108;27;20471;-87
2022/10/10 04:53:23;;;;;;;15.53;9.30;;;12.90;56.60;;;;;;5103671;27;20907;-88
2022/10/10 04:55:51;;;;;;;15.83;10.13;;;12.90;56.50;;;;;;5114669;27;20464;-86
2022/10/10 04:58:18;;;;;;;15.67;8.63;;;12.90;56.60;;;;;;5112519;27;20474;-87
2022/10/10 05:00:45;;;;;;;10.77;7.33;;;12.90;56.70;;;;;;5100773;27;20544;-88
2022/10/10 05:03:14;;;;;;;8.80;6.63;;;12.90;56.80;;;;;;5105979;28;20468;-86
2022/10/10 05:05:41;;;;;;;8.00;5.37;;;12.70;56.20;;;;;;5099100;28;20463;-86
2022/10/10 05:08:08;;;;;;;6.30;5.10;;;12.70;55.60;;;;;;5100568;28;20856;-86
2022/10/10 05:10:37;;;;;;;8.87;5.93;;;12.70;55.70;;;;;;5095662;28;20452;-87
2022/10/10 05:13:05;;;;;;;6.40;5.50;;;12.70;55.70;;;;;;5098483;28;20961;-87
2022/10/10 05:15:34;;;;;;;7.97;5.97;;;12.80;55.40;;;;;;5119298;28;20450;-88
2022/10/10 05:18:01;;;;;;;7.20;5.40;;;12.80;55.00;;;;;;5102718;28;20519;-86
2022/10/10 05:20:30;;;;;;;11.87;6.97;;;12.70;54.20;;;;;;5112587;28;20524;-89
2022/10/10 05:22:57;;;;;;;12.30;7.00;;;12.60;54.00;;;;;;5097673;28;20542;-87
2022/10/10 05:25:24;;;;;;;9.03;5.80;;;12.60;54.30;;;;;;5096323;28;20750;-86
2022/10/10 05:27:51;;;;;;;7.67;5.30;;;12.50;55.10;;;;;;5122743;28;20473;-86
2022/10/10 05:30:19;;;;;;;8.60;5.10;;;12.50;55.80;;;;;;5097699;28;20529;-87
2022/10/10 05:32:46;;;;;;;5.73;5.00;;;12.50;55.40;;;;;;5115636;28;21019;-86
2022/10/10 05:35:13;;;;;;;18.03;7.40;;;12.40;55.40;;;;;;5102599;28;20473;-91
2022/10/10 05:37:41;;;;;;;8.30;6.30;;;12.50;55.30;;;;;;5115407;27;20561;-86
2022/10/10 05:40:09;;;;;;;9.90;6.97;;;12.50;55.20;;;;;;5093212;27;20469;-86
2022/10/10 05:42:36;;;;;;;9.93;6.90;;;12.60;55.00;;;;;;5119095;27;20448;-89
2022/10/10 05:45:04;;;;;;;9.53;5.90;;;12.60;55.00;;;;;;5092952;27;21339;-88
2022/10/10 05:47:31;;;;;;;8.33;6.77;;;12.60;55.00;;;;;;5104307;27;20520;-86
2022/10/10 05:49:58;;;;;;;9.17;7.10;;;12.70;55.10;;;;;;5100532;27;20500;-88
2022/10/10 05:52:25;;;;;;;11.70;7.40;;;12.70;55.00;;;;;;5091145;27;20446;-88
2022/10/10 05:54:54;;;;;;;13.43;7.40;;;12.60;55.20;;;;;;5103484;27;20459;-87
2022/10/10 05:57:21;;;;;;;8.67;5.90;;;12.60;55.20;;;;;;5116568;27;20482;-86
2022/10/10 05:59:48;;;;;;;11.63;6.50;;;12.60;55.50;;;;;;5101440;27;20469;-86
2022/10/10 06:02:15;;;;;;;13.00;7.23;;;12.60;56.00;;;;;;5086516;27;20454;-86
2022/10/10 06:04:42;;;;;;;14.23;7.83;;;12.50;56.60;;;;;;5099089;27;20511;-87
2022/10/10 06:07:09;;;;;;;18.17;10.47;;;12.40;57.30;;;;;;5117697;27;20474;-86
2022/10/10 06:09:36;;;;;;;14.50;9.23;;;12.30;57.50;;;;;;5090111;27;20454;-86
2022/10/10 06:12:05;;;;;;;18.10;10.00;;;12.20;57.70;;;;;;5079539;27;20570;-87
2022/10/10 06:14:32;;;;;;;72.47;14.80;;;11.80;59.30;;;;;;5118493;27;20438;-86
2022/10/10 06:16:59;;;;;;;16.63;9.00;;;12.00;58.50;;;;;;5102888;27;20475;-86
2022/10/10 06:19:27;;;;;;;18.03;8.60;;;12.10;58.50;;;;;;5108065;27;20452;-86
2022/10/10 06:21:54;;;;;;;16.07;9.07;;;12.30;58.20;;;;;;5087284;27;20541;-88
2022/10/10 06:24:21;;;;;;;15.03;8.67;;;12.50;57.80;;;;;;5115818;27;20475;-87
2022/10/10 06:26:48;;;;;;;14.20;8.63;;;12.50;57.30;;;;;;5091938;27;21239;-88
2022/10/10 06:29:17;;;;;;;21.63;12.63;;;12.40;57.70;;;;;;5096409;27;20520;-87
2022/10/10 06:31:44;;;;;;;28.03;14.83;;;12.40;58.20;;;;;;5085798;27;20496;-88
2022/10/10 06:34:11;;;;;;;13.03;8.47;;;12.30;58.40;;;;;;5083272;27;20462;-86
2022/10/10 06:36:38;;;;;;;12.53;7.50;;;12.40;58.40;;;;;;5120907;27;20510;-87
2022/10/10 06:39:05;;;;;;;9.17;6.70;;;12.40;58.10;;;;;;5104240;27;20500;-86
2022/10/10 06:41:33;;;;;;;11.47;7.23;;;12.20;58.40;;;;;;5102774;27;20462;-87
2022/10/10 06:44:00;;;;;;;9.87;7.33;;;12.10;59.30;;;;;;5086506;27;20474;-86
2022/10/10 06:46:33;;;;;;;23.73;12.00;;;12.20;59.30;;;;;;5089518;27;20546;-86
2022/10/10 06:49:00;;;;;;;14.20;8.20;;;12.40;59.00;;;;;;5086517;27;20660;-90
2022/10/10 06:51:27;;;;;;;13.60;9.17;;;12.50;58.70;;;;;;5105113;27;20548;-88
2022/10/10 06:53:57;;;;;;;15.90;8.47;;;12.70;58.40;;;;;;5096036;28;20520;-85
2022/10/10 06:56:24;;;;;;;13.40;6.47;;;12.80;58.50;;;;;;5097850;27;20447;-86
2022/10/10 06:58:52;;;;;;;21.27;8.30;;;12.70;58.60;;;;;;5080405;27;20571;-86
2022/10/10 07:01:21;;;;;;;11.97;8.07;;;12.70;59.00;;;;;;5068086;27;20824;-87
2022/10/10 07:03:49;;;;;;;23.90;8.60;;;12.80;58.50;;;;;;5079705;27;20484;-85
2022/10/10 07:06:17;;;;;;;13.33;8.00;;;12.50;59.40;;;;;;5088774;27;21059;-86
2022/10/10 07:08:44;;;;;;;23.10;8.70;;;12.40;60.10;;;;;;5078991;27;20476;-87
2022/10/10 07:11:11;;;;;;;10.80;7.63;;;12.50;59.80;;;;;;5095062;27;20518;-86
2022/10/10 07:13:39;;;;;;;11.77;8.10;;;12.60;59.60;;;;;;5086225;27;20479;-85
2022/10/10 07:16:07;;;;;;;28.87;10.40;;;12.60;59.40;;;;;;5065202;27;20446;-85
2022/10/10 07:18:35;;;;;;;20.60;11.23;;;12.50;59.20;;;;;;5096436;27;20560;-86
2022/10/10 07:21:05;;;;;;;19.33;10.50;;;12.40;59.60;;;;;;5094730;28;20451;-86
2022/10/10 07:23:32;;;;;;;64.93;18.80;;;12.60;59.40;;;;;;5071979;27;20461;-88
2022/10/10 07:26:01;;;;;;;41.17;19.00;;;12.70;58.80;;;;;;5069676;27;20854;-86
2022/10/10 07:28:28;;;;;;;20.10;11.10;;;12.70;59.30;;;;;;5093713;27;20464;-89
2022/10/10 07:31:00;;;;;;;18.43;10.90;;;12.80;58.90;;;;;;5082240;27;20436;-88
2022/10/10 07:33:31;;;;;;;16.03;10.10;;;12.70;59.00;;;;;;5114797;27;20472;-87
2022/10/10 07:35:58;;;;;;;13.83;9.07;;;12.80;59.20;;;;;;5068485;27;20469;-89
2022/10/10 07:38:27;;;;;;;14.50;10.20;;;12.90;59.40;;;;;;5119310;27;20976;-88
2022/10/10 07:40:54;;;;;;;11.90;8.70;;;13.10;58.90;;;;;;5071751;27;20534;-85
2022/10/10 07:43:21;;;;;;;13.03;8.80;;;13.30;58.40;;;;;;5095344;27;20458;-85
2022/10/10 07:45:48;;;;;;;11.40;9.10;;;13.30;58.10;;;;;;5094577;27;20512;-84
2022/10/10 07:48:15;;;;;;;17.20;8.87;;;13.40;58.10;;;;;;5110599;27;21235;-84
2022/10/10 07:50:43;;;;;;;20.87;8.00;;;13.40;58.00;;;;;;5097233;27;20825;-84
2022/10/10 07:53:10;;;;;;;17.07;12.00;;;13.40;58.20;;;;;;5090106;27;20950;-88
2022/10/10 07:55:40;;;;;;;15.83;9.17;;;13.50;58.00;;;;;;5065176;27;20475;-84
2022/10/10 07:58:08;;;;;;;19.13;11.40;;;13.20;58.50;;;;;;5081991;27;20514;-87
2022/10/10 08:00:36;;;;;;;17.60;14.90;;;12.80;59.30;;;;;;5113160;27;20472;-85
2022/10/10 08:03:03;;;;;;;13.80;8.97;;;13.00;59.00;;;;;;5095100;27;21199;-84
2022/10/10 08:05:30;;;;;;;21.20;9.40;;;13.30;58.50;;;;;;5092776;27;20553;-86
2022/10/10 08:07:57;;;;;;;15.03;10.13;;;13.50;58.30;;;;;;5094276;27;20506;-85
2022/10/10 08:10:24;;;;;;;9.20;7.27;;;13.70;58.10;;;;;;5076919;27;20463;-85
2022/10/10 08:12:53;;;;;;;12.90;7.20;;;13.90;57.60;;;;;;5085831;27;20488;-87
2022/10/10 08:15:20;;;;;;;15.20;6.73;;;13.80;57.50;;;;;;5093146;28;20757;-86
2022/10/10 08:17:48;;;;;;;17.10;10.33;;;13.50;57.70;;;;;;5078623;28;21027;-87
2022/10/10 08:20:15;;;;;;;11.27;8.37;;;13.60;58.30;;;;;;5098202;27;20446;-87
2022/10/10 08:22:42;;;;;;;14.73;6.53;;;13.90;58.00;;;;;;5097988;27;20447;-88
2022/10/10 08:25:10;;;;;;;15.13;7.20;;;14.00;58.10;;;;;;5099612;27;20472;-85
2022/10/10 08:27:37;;;;;;;7.97;6.47;;;13.90;57.90;;;;;;5087919;27;20467;-85
2022/10/10 08:30:07;;;;;;;6.30;5.60;;;13.80;58.30;;;;;;5095255;27;20573;-87
2022/10/10 08:32:34;;;;;;;11.33;6.40;;;13.80;58.40;;;;;;5098940;28;20466;-86
2022/10/10 08:35:01;;;;;;;10.03;7.03;;;13.90;58.30;;;;;;5113975;27;20446;-87
2022/10/10 08:37:29;;;;;;;13.10;6.70;;;14.10;58.00;;;;;;5114286;27;20515;-87
2022/10/10 08:39:56;;;;;;;11.70;5.90;;;14.40;57.50;;;;;;5096226;28;20457;-85
2022/10/10 08:42:30;;;;;;;6.93;5.60;;;14.50;56.80;;;;;;5087194;28;20450;-87
2022/10/10 08:45:01;;;;;;;6.37;4.90;;;14.50;56.80;;;;;;5096760;28;20484;-85
2022/10/10 08:47:37;;;;;;;15.63;6.83;;;14.60;56.70;;;;;;5086611;27;20538;-85
2022/10/10 08:50:12;;;;;;;10.23;7.30;;;14.60;56.60;;;;;;5082797;27;20439;-88
2022/10/10 08:52:43;;;;;;;17.13;12.10;;;14.50;56.80;;;;;;5065955;28;20473;-87
2022/10/10 08:55:17;;;;;;;16.50;9.63;;;14.50;57.70;;;;;;5089810;27;20443;-84
2022/10/10 08:57:50;;;;;;;19.70;14.03;;;14.40;57.40;;;;;;5102496;28;20469;-84
2022/10/10 09:00:21;;;;;;;9.30;6.70;;;14.50;57.30;;;;;;5065562;28;20969;-87
2022/10/10 09:02:52;;;;;;;10.03;8.20;;;14.70;57.10;;;;;;5096326;27;20469;-86
2022/10/10 09:05:24;;;;;;;9.60;6.20;;;14.60;57.60;;;;;;5115653;27;20469;-85
2022/10/10 09:08:06;;;;;;;7.27;4.97;;;14.60;57.60;;;;;;5119577;28;20485;-87
2022/10/10 09:10:40;;;;;;;7.73;5.20;;;14.90;57.50;;;;;;5070704;28;20449;-87
2022/10/10 09:13:19;;;;;;;12.77;6.50;;;14.90;56.90;;;;;;5080180;27;20515;-88
2022/10/10 09:15:54;;;;;;;15.20;10.47;;;14.80;57.50;;;;;;5096151;28;20492;-85
2022/10/10 09:18:42;;;;;;;10.33;7.33;;;14.90;57.40;;;;;;5096586;28;20472;-84
2022/10/10 09:21:15;;;;;;;8.27;5.90;;;15.00;57.00;;;;;;5084597;28;20447;-86
2022/10/10 09:23:48;;;;;;;8.60;7.40;;;15.20;57.00;;;;;;5091158;28;20450;-86
2022/10/10 09:26:21;;;;;;;6.53;5.80;;;15.20;57.00;;;;;;5080092;28;20477;-84
2022/10/10 09:28:54;;;;;;;7.30;5.97;;;15.10;57.10;;;;;;5082717;28;20462;-84
2022/10/10 09:31:26;;;;;;;6.30;5.47;;;15.30;57.00;;;;;;5071859;28;20446;-87
2022/10/10 09:33:59;;;;;;;12.37;5.50;;;15.50;56.70;;;;;;5083717;28;20461;-84
2022/10/10 09:36:32;;;;;;;8.07;5.80;;;15.70;56.40;;;;;;5073023;28;22416;-87
2022/10/10 09:39:04;;;;;;;12.23;6.90;;;15.80;56.40;;;;;;5065865;28;20462;-85
2022/10/10 09:41:36;;;;;;;9.00;5.77;;;15.60;57.00;;;;;;5093982;28;20569;-86
2022/10/10 09:44:07;;;;;;;8.70;5.73;;;15.70;56.90;;;;;;5069316;28;20462;-87
2022/10/10 09:46:34;;;;;;;10.57;7.20;;;15.70;56.80;;;;;;5096861;28;20457;-86
2022/10/10 09:49:03;;;;;;;7.13;5.87;;;15.80;57.20;;;;;;5072576;28;20470;-86
2022/10/10 09:51:31;;;;;;;6.33;5.20;;;15.80;57.20;;;;;;5069817;28;20443;-86
2022/10/10 09:53:59;;;;;;;8.40;6.50;;;16.00;57.10;;;;;;5072996;28;20478;-84
2022/10/10 09:56:29;;;;;;;10.57;8.20;;;16.00;56.90;;;;;;5075980;27;20557;-86
2022/10/10 09:58:57;;;;;;;12.03;5.77;;;16.10;56.70;;;;;;5087493;28;20572;-89
2022/10/10 10:01:27;;;;;;;6.73;5.93;;;16.10;56.60;;;;;;5066200;27;20497;-85
2022/10/10 10:04:13;;;;;;;7.97;5.50;;;16.10;56.80;;;;;;5090302;28;20448;-86
2022/10/10 10:06:44;;;;;;;7.53;5.33;;;16.20;56.90;;;;;;5073703;28;20557;-87
2022/10/10 10:09:16;;;;;;;6.70;5.63;;;16.30;57.20;;;;;;5101443;28;20477;-88
2022/10/10 10:11:46;;;;;;;6.37;5.43;;;16.40;57.00;;;;;;5100038;28;20450;-86
2022/10/10 10:14:25;;;;;;;5.97;5.27;;;16.40;57.20;;;;;;5082928;28;20447;-86
2022/10/10 10:16:53;;;;;;;8.07;4.90;;;16.40;57.20;;;;;;5082501;28;21405;-87
2022/10/10 10:19:34;;;;;;;7.70;5.07;;;16.50;57.20;;;;;;5102635;28;20853;-89
2022/10/10 10:22:01;;;;;;;5.90;4.30;;;16.60;57.60;;;;;;5071750;28;20453;-85
2022/10/10 10:24:35;;;;;;;12.93;4.73;;;16.80;57.30;;;;;;5102219;27;21025;-87
2022/10/10 10:27:10;;;;;;;5.23;4.30;;;17.00;57.10;;;;;;5090626;27;20519;-87
2022/10/10 10:29:38;;;;;;;6.70;4.10;;;17.20;57.00;;;;;;5107309;27;20486;-86
2022/10/10 10:32:14;;;;;;;9.13;4.50;;;17.40;56.50;;;;;;5084359;28;21142;-87
2022/10/10 10:34:59;;;;;;;5.53;4.40;;;17.40;57.30;;;;;;5100147;27;20454;-85
2022/10/10 10:37:31;;;;;;;4.77;4.37;;;17.60;56.50;;;;;;5092175;27;20465;-86
2022/10/10 10:40:23;;;;;;;11.03;4.13;;;17.70;56.50;;;;;;5086213;28;20458;-87
2022/10/10 10:43:06;;;;;;;5.70;5.10;;;17.80;56.00;;;;;;5121010;27;20453;-85
2022/10/10 10:45:42;;;;;;;7.63;4.80;;;18.00;55.90;;;;;;5107802;27;20454;-87
2022/10/10 10:48:21;;;;;;;11.27;6.07;;;18.20;56.20;;;;;;5084265;27;20505;-86
2022/10/10 10:50:54;;;;;;;24.03;11.53;;;18.40;55.50;;;;;;5082382;27;21191;-88
2022/10/10 10:53:29;;;;;;;8.30;5.80;;;18.30;55.70;;;;;;5108487;27;20457;-87
2022/10/10 10:56:03;;;;;;;14.87;4.70;;;18.50;55.50;;;;;;5117683;27;20445;-86
2022/10/10 10:58:53;;;;;;;9.90;7.13;;;18.60;55.50;;;;;;5089977;27;20501;-87
2022/10/10 11:01:26;;;;;;;6.50;4.97;;;19.00;55.20;;;;;;5085289;27;20454;-86
2022/10/10 11:04:00;;;;;;;16.17;12.80;;;19.20;54.60;;;;;;5081176;27;20447;-89
2022/10/10 11:06:49;;;;;;;6.47;5.00;;;19.40;54.00;;;;;;5097581;27;20482;-86
2022/10/10 11:09:23;;;;;;;8.17;5.13;;;19.70;54.50;;;;;;5084444;28;20481;-86
2022/10/10 11:12:02;;;;;;;16.93;8.70;;;19.90;54.00;;;;;;5108310;27;20499;-88
2022/10/10 11:14:46;;;;;;;11.63;8.83;;;20.20;53.60;;;;;;5098601;27;20534;-87
2022/10/10 11:17:19;;;;;;;8.77;6.67;;;20.50;53.30;;;;;;5113949;27;20462;-88
2022/10/10 11:19:55;;;;;;;15.37;9.50;;;20.70;52.50;;;;;;5097074;27;20829;-88
2022/10/10 11:22:28;;;;;;;9.50;6.57;;;20.80;53.00;;;;;;5104025;27;20449;-87
2022/10/10 11:24:59;;;;;;;9.43;4.87;;;21.10;52.40;;;;;;5115855;27;20449;-87
2022/10/10 11:27:32;;;;;;;15.20;9.70;;;21.30;51.50;;;;;;5097455;27;20562;-86
2022/10/10 11:30:07;;;;;;;20.33;13.13;;;21.40;52.10;;;;;;5114108;27;20443;-86
2022/10/10 11:32:43;;;;;;;10.30;6.70;;;21.50;51.60;;;;;;5100600;27;20444;-89
2022/10/10 11:35:26;;;;;;;9.00;5.03;;;21.70;51.60;;;;;;5100589;27;20852;-86
2022/10/10 11:38:00;;;;;;;10.77;8.47;;;21.90;51.60;;;;;;5108447;27;20462;-87
2022/10/10 11:40:33;;;;;;;19.93;9.77;;;22.10;51.60;;;;;;5103383;27;20450;-90
2022/10/10 11:43:05;;;;;;;7.83;7.00;;;22.20;51.40;;;;;;5118487;27;20501;-88
2022/10/10 11:45:36;;;;;;;9.00;5.17;;;22.40;51.30;;;;;;5114220;27;20479;-87
2022/10/10 11:48:13;;;;;;;5.77;3.93;;;22.70;51.60;;;;;;5099709;27;20524;-87
2022/10/10 11:50:42;;;;;;;9.50;3.27;;;22.90;50.20;;;;;;5073183;27;20504;-88
2022/10/10 11:53:20;;;;;;;16.50;9.57;;;22.90;50.30;;;;;;5088138;27;20453;-90
2022/10/10 11:55:52;;;;;;;10.13;6.60;;;23.10;50.30;;;;;;5097557;27;20439;-85
2022/10/10 11:58:31;;;;;;;15.83;9.23;;;23.30;49.80;;;;;;5074509;27;20520;-87
2022/10/10 12:01:04;;;;;;;8.20;5.33;;;23.40;49.50;;;;;;5115653;27;20523;-85
2022/10/10 12:03:31;;;;;;;10.20;7.37;;;23.40;49.70;;;;;;5092409;27;20451;-87
2022/10/10 12:06:03;;;;;;;6.40;4.70;;;23.20;49.90;;;;;;5114260;27;20474;-87
2022/10/10 12:08:37;;;;;;;6.60;5.37;;;23.50;50.00;;;;;;5088412;27;20505;-87
2022/10/10 12:11:13;;;;;;;5.97;4.60;;;23.50;49.50;;;;;;5084761;27;21167;-87
2022/10/10 12:13:42;;;;;;;5.07;3.70;;;23.40;49.10;;;;;;5090052;27;20461;-85
2022/10/10 12:16:14;;;;;;;4.70;3.53;;;23.50;49.60;;;;;;5083341;27;20910;-86
2022/10/10 12:18:44;;;;;;;5.27;3.80;;;23.80;49.20;;;;;;5099023;27;20469;-86
2022/10/10 12:21:14;;;;;;;5.90;3.17;;;24.10;48.80;;;;;;5095099;27;20453;-86
2022/10/10 12:23:46;;;;;;;4.60;3.80;;;24.20;48.00;;;;;;5080537;27;20491;-86
2022/10/10 12:26:16;;;;;;;5.33;3.23;;;24.30;47.80;;;;;;5058188;28;20856;-85
2022/10/10 12:29:01;;;;;;;7.13;3.10;;;24.40;48.40;;;;;;5079756;27;20468;-86
2022/10/10 12:31:31;;;;;;;5.03;3.10;;;24.70;47.00;;;;;;5095737;27;20447;-85
2022/10/10 12:34:40;;;;;;;7.53;4.40;;;24.90;46.30;;;;;;5078488;27;20538;-88
2022/10/10 12:37:24;;;;;;;9.27;3.77;;;24.90;45.00;;;;;;5089364;27;20447;-88
2022/10/10 12:40:21;;;;;;;8.47;2.90;;;25.10;45.60;;;;;;5093970;27;20455;-86
2022/10/10 12:43:16;;;;;;;8.30;3.40;;;24.80;44.50;;;;;;5114855;27;20484;-87
2022/10/10 12:45:57;;;;;;;6.20;3.73;;;25.10;44.80;;;;;;5115325;27;20856;-86
2022/10/10 12:48:25;;;;;;;5.40;3.03;;;25.10;44.00;;;;;;5112999;27;20503;-87
2022/10/10 12:50:57;;;;;;;5.80;3.13;;;24.90;45.00;;;;;;5094388;27;20963;-86
2022/10/10 12:53:28;;;;;;;5.93;3.00;;;24.90;44.80;;;;;;5103809;27;20453;-86
2022/10/10 12:55:59;;;;;;;6.50;2.40;;;25.00;44.50;;;;;;5114231;27;20549;-88
2022/10/10 12:58:29;;;;;;;9.77;3.10;;;25.20;44.30;;;;;;5079779;28;20466;-85
2022/10/10 13:00:59;;;;;;;18.50;3.73;;;25.40;44.00;;;;;;5089903;28;21128;-85